sensor_id;sensor_type;location;lat;lon;timestamp;pressure;altitude;pressure_sealevel;temperature;humidity
62103;BME280;48077;48.104;11.702;2023-04-09T00:01:33;96032.28;;;1.39;100.00
62103;BME280;48077;48.104;11.702;2023-04-09T00:07:43;96096.75;;;1.76;100.00
62103;BME280;48077;48.104;11.702;2023-04-09T00:10:07;96066.16;;;1.58;100.00
62103;BME280;48077;48.104;11.702;2023-04-09T00:12:30;96060.25;;;1.56;100.00
62103;BME280;48077;48.104;11.702;2023-04-09T00:15:01;96090.31;;;1.70;100.00
62103;BME280;48077;48.104;11.702;2023-04-09T00:17:24;96087.53;;;1.64;100.00
62103;BME280;48077;48.104;11.702;2023-04-09T00:19:48;96071.09;;;1.61;100.00
62103;BME280;48077;48.104;11.702;2023-04-09T00:22:11;96081.25;;;1.65;100.00
62103;BME280;48077;48.104;11.702;2023-04-09T00:24:38;96081.75;;;1.68;100.00
62103;BME280;48077;48.104;11.702;2023-04-09T00:27:03;96058.59;;;1.55;100.00
62103;BME280;48077;48.104;11.702;2023-04-09T00:29:26;96062.03;;;1.56;100.00
62103;BME280;48077;48.104;11.702;2023-04-09T00:31:50;96062.69;;;1.58;100.00
62103;BME280;48077;48.104;11.702;2023-04-09T00:34:13;96084.09;;;1.71;100.00
62103;BME280;48077;48.104;11.702;2023-04-09T00:36:36;96076.34;;;1.70;100.00
62103;BME280;48077;48.104;11.702;2023-04-09T00:39:00;96055.47;;;1.60;100.00
62103;BME280;48077;48.104;11.702;2023-04-09T00:41:23;96064.34;;;1.67;100.00
62103;BME280;48077;48.104;11.702;2023-04-09T00:43:46;96077.66;;;1.74;100.00
62103;BME280;48077;48.104;11.702;2023-04-09T00:46:12;96052.00;;;1.51;100.00
62103;BME280;48077;48.104;11.702;2023-04-09T00:48:36;96058.72;;;1.54;100.00
62103;BME280;48077;48.104;11.702;2023-04-09T00:50:59;96055.31;;;1.61;100.00
62103;BME280;48077;48.104;11.702;2023-04-09T00:53:24;96075.03;;;1.74;100.00
62103;BME280;48077;48.104;11.702;2023-04-09T00:55:47;96043.31;;;1.51;100.00
62103;BME280;48077;48.104;11.702;2023-04-09T00:58:11;96053.81;;;1.59;100.00
62103;BME280;48077;48.104;11.702;2023-04-09T01:00:34;96053.81;;;1.59;100.00
62103;BME280;48077;48.104;11.702;2023-04-09T01:02:58;96080.28;;;1.66;100.00
62103;BME280;48077;48.104;11.702;2023-04-09T01:05:25;96084.41;;;1.68;100.00
62103;BME280;48077;48.104;11.702;2023-04-09T01:11:18;96058.59;;;1.55;100.00
62103;BME280;48077;48.104;11.702;2023-04-09T01:14:05;96076.34;;;1.70;100.00
62103;BME280;48077;48.104;11.702;2023-04-09T01:16:33;96060.56;;;1.61;100.00
62103;BME280;48077;48.104;11.702;2023-04-09T01:19:18;96053.69;;;1.60;100.00
62103;BME280;48077;48.104;11.702;2023-04-09T01:21:47;96075.03;;;1.74;100.00
62103;BME280;48077;48.104;11.702;2023-04-09T01:24:41;96052.69;;;1.61;100.00
62103;BME280;48077;48.104;11.702;2023-04-09T01:27:09;96065.97;;;1.68;100.00
62103;BME280;48077;48.104;11.702;2023-04-09T01:29:36;96058.44;;;1.65;100.00
62103;BME280;48077;48.104;11.702;2023-04-09T01:32:01;96072.06;;;1.69;100.00
62103;BME280;48077;48.104;11.702;2023-04-09T01:34:25;96062.53;;;1.59;100.00
62103;BME280;48077;48.104;11.702;2023-04-09T01:36:53;96051.84;;;1.53;100.00
62103;BME280;48077;48.104;11.702;2023-04-09T01:39:17;96062.38;;;1.61;100.00
62103;BME280;48077;48.104;11.702;2023-04-09T01:41:44;96058.59;;;1.55;100.00
62103;BME280;48077;48.104;11.702;2023-04-09T01:44:09;96050.53;;;1.57;100.00
62103;BME280;48077;48.104;11.702;2023-04-09T01:46:35;96058.75;;;1.62;100.00
62103;BME280;48077;48.104;11.702;2023-04-09T01:49:00;96072.06;;;1.69;100.00
62103;BME280;48077;48.104;11.702;2023-04-09T01:51:24;96048.72;;;1.49;100.00
62103;BME280;48077;48.104;11.702;2023-04-09T01:53:49;96061.56;;;1.60;100.00
62103;BME280;48077;48.104;11.702;2023-04-09T01:56:12;96059.41;;;1.56;100.00
62103;BME280;48077;48.104;11.702;2023-04-09T01:58:36;96079.78;;;1.62;100.00
62103;BME280;48077;48.104;11.702;2023-04-09T02:01:05;96078.16;;;1.61;100.00
62103;BME280;48077;48.104;11.702;2023-04-09T02:03:34;96080.78;;;1.61;100.00
62103;BME280;48077;48.104;11.702;2023-04-09T02:06:08;96058.56;;;1.47;100.00
62103;BME280;48077;48.104;11.702;2023-04-09T02:08:35;96079.97;;;1.60;100.00
62103;BME280;48077;48.104;11.702;2023-04-09T02:11:03;96076.50;;;1.60;100.00
62103;BME280;48077;48.104;11.702;2023-04-09T02:13:27;96076.16;;;1.55;100.00
62103;BME280;48077;48.104;11.702;2023-04-09T02:15:53;96071.88;;;1.54;100.00
62103;BME280;48077;48.104;11.702;2023-04-09T02:18:23;96068.59;;;1.52;100.00
62103;BME280;48077;48.104;11.702;2023-04-09T02:20:47;96054.47;;;1.45;100.00
62103;BME280;48077;48.104;11.702;2023-04-09T02:23:10;96058.72;;;1.46;100.00
62103;BME280;48077;48.104;11.702;2023-04-09T02:25:33;96079.63;;;1.55;100.00
62103;BME280;48077;48.104;11.702;2023-04-09T02:27:57;96064.50;;;1.49;100.00
62103;BME280;48077;48.104;11.702;2023-04-09T02:30:20;96066.81;;;1.52;100.00
62103;BME280;48077;48.104;11.702;2023-04-09T02:32:44;96042.63;;;1.40;100.00
62103;BME280;48077;48.104;11.702;2023-04-09T02:35:07;96065.31;;;1.50;100.00
62103;BME280;48077;48.104;11.702;2023-04-09T02:37:30;96078.94;;;1.53;100.00
62103;BME280;48077;48.104;11.702;2023-04-09T02:39:54;96065.31;;;1.50;100.00
62103;BME280;48077;48.104;11.702;2023-04-09T02:42:17;96059.56;;;1.46;100.00
62103;BME280;48077;48.104;11.702;2023-04-09T02:44:43;96048.88;;;1.48;100.00
62103;BME280;48077;48.104;11.702;2023-04-09T02:47:09;96063.53;;;1.58;100.00
62103;BME280;48077;48.104;11.702;2023-04-09T02:49:35;96040.31;;;1.46;100.00
62103;BME280;48077;48.104;11.702;2023-04-09T02:51:58;96050.84;;;1.54;100.00
62103;BME280;48077;48.104;11.702;2023-04-09T02:54:21;96065.97;;;1.68;100.00
62103;BME280;48077;48.104;11.702;2023-04-09T02:56:45;96058.59;;;1.64;100.00
62103;BME280;48077;48.104;11.702;2023-04-09T02:59:17;96034.75;;;1.49;100.00
62103;BME280;48077;48.104;11.702;2023-04-09T03:01:40;96039.00;;;1.50;100.00
62103;BME280;48077;48.104;11.702;2023-04-09T03:04:04;96060.22;;;1.65;100.00
62103;BME280;48077;48.104;11.702;2023-04-09T03:06:27;96053.97;;;1.57;100.00
62103;BME280;48077;48.104;11.702;2023-04-09T03:08:50;96059.25;;;1.66;100.00
62103;BME280;48077;48.104;11.702;2023-04-09T03:11:14;96048.41;;;1.60;100.00
62103;BME280;48077;48.104;11.702;2023-04-09T03:13:38;96047.09;;;1.56;100.00
62103;BME280;48077;48.104;11.702;2023-04-09T03:16:01;96043.47;;;1.49;100.00
62103;BME280;48077;48.104;11.702;2023-04-09T03:18:24;96047.09;;;1.48;100.00
62103;BME280;48077;48.104;11.702;2023-04-09T03:20:48;96062.53;;;1.51;100.00
62103;BME280;48077;48.104;11.702;2023-04-09T03:23:15;96065.63;;;1.47;100.00
62103;BME280;48077;48.104;11.702;2023-04-09T03:25:41;96063.16;;;1.37;100.00
62103;BME280;48077;48.104;11.702;2023-04-09T03:28:04;96066.28;;;1.40;100.00
62103;BME280;48077;48.104;11.702;2023-04-09T03:30:28;96022.56;;;1.15;100.00
62103;BME280;48077;48.104;11.702;2023-04-09T03:32:52;96075.34;;;1.46;100.00
62103;BME280;48077;48.104;11.702;2023-04-09T03:35:15;96049.03;;;1.30;100.00
62103;BME280;48077;48.104;11.702;2023-04-09T03:37:38;96064.16;;;1.36;100.00
62103;BME280;48077;48.104;11.702;2023-04-09T03:40:02;96069.06;;;1.39;100.00
62103;BME280;48077;48.104;11.702;2023-04-09T03:42:26;96050.81;;;1.21;100.00
62103;BME280;48077;48.104;11.702;2023-04-09T03:44:52;96051.28;;;1.16;100.00
62103;BME280;48077;48.104;11.702;2023-04-09T03:47:16;96054.09;;;1.15;100.00
62103;BME280;48077;48.104;11.702;2023-04-09T03:49:39;96064.06;;;1.11;100.00
62103;BME280;48077;48.104;11.702;2023-04-09T03:52:03;96067.19;;;1.07;100.00
62103;BME280;48077;48.104;11.702;2023-04-09T03:54:29;96068.47;;;0.94;100.00
62103;BME280;48077;48.104;11.702;2023-04-09T03:56:53;96063.69;;;0.90;100.00
62103;BME280;48077;48.104;11.702;2023-04-09T03:59:16;96064.97;;;0.86;100.00
62103;BME280;48077;48.104;11.702;2023-04-09T04:01:39;96079.94;;;0.93;100.00
62103;BME280;48077;48.104;11.702;2023-04-09T04:04:03;96073.31;;;0.81;100.00
62103;BME280;48077;48.104;11.702;2023-04-09T04:06:26;96080.22;;;0.82;100.00
62103;BME280;48077;48.104;11.702;2023-04-09T04:08:49;96078.25;;;0.84;100.00
62103;BME280;48077;48.104;11.702;2023-04-09T04:11:13;96085.63;;;0.80;100.00
62103;BME280;48077;48.104;11.702;2023-04-09T04:13:36;96080.19;;;0.74;100.00
62103;BME280;48077;48.104;11.702;2023-04-09T04:16:00;96074.91;;;0.66;100.00
62103;BME280;48077;48.104;11.702;2023-04-09T04:18:23;96072.69;;;0.53;100.00
62103;BME280;48077;48.104;11.702;2023-04-09T04:20:46;96070.38;;;0.50;100.00
62103;BME280;48077;48.104;11.702;2023-04-09T04:23:10;96064.78;;;0.45;100.00
62103;BME280;48077;48.104;11.702;2023-04-09T04:25:33;96084.06;;;0.62;100.00
62103;BME280;48077;48.104;11.702;2023-04-09T04:27:57;96093.78;;;0.69;100.00
62103;BME280;48077;48.104;11.702;2023-04-09T04:30:20;96079.28;;;0.57;100.00
62103;BME280;48077;48.104;11.702;2023-04-09T04:32:44;96082.56;;;0.59;100.00
62103;BME280;48077;48.104;11.702;2023-04-09T04:35:07;96071.03;;;0.52;100.00
62103;BME280;48077;48.104;11.702;2023-04-09T04:37:31;96083.53;;;0.58;100.00
62103;BME280;48077;48.104;11.702;2023-04-09T04:39:54;96080.63;;;0.61;100.00
62103;BME280;48077;48.104;11.702;2023-04-09T04:42:18;96061.22;;;0.54;100.00
62103;BME280;48077;48.104;11.702;2023-04-09T04:44:44;96091.97;;;0.70;100.00
62103;BME280;48077;48.104;11.702;2023-04-09T04:47:07;96077.03;;;0.70;100.00
62103;BME280;48077;48.104;11.702;2023-04-09T04:49:31;96066.25;;;0.73;100.00
62103;BME280;48077;48.104;11.702;2023-04-09T04:51:54;96059.00;;;0.67;100.00
62103;BME280;48077;48.104;11.702;2023-04-09T04:54:18;96075.09;;;0.72;100.00
62103;BME280;48077;48.104;11.702;2023-04-09T04:56:41;96097.91;;;0.72;100.00
62103;BME280;48077;48.104;11.702;2023-04-09T04:59:04;96115.28;;;0.73;100.00
62103;BME280;48077;48.104;11.702;2023-04-09T05:01:28;96115.47;;;0.71;100.00
62103;BME280;48077;48.104;11.702;2023-04-09T05:03:51;96095.38;;;0.62;100.00
62103;BME280;48077;48.104;11.702;2023-04-09T05:06:17;96090.13;;;0.62;100.00
62103;BME280;48077;48.104;11.702;2023-04-09T05:08:41;96101.00;;;0.67;100.00
62103;BME280;48077;48.104;11.702;2023-04-09T05:11:04;96097.84;;;0.64;100.00
62103;BME280;48077;48.104;11.702;2023-04-09T05:13:27;96081.88;;;0.49;100.00
62103;BME280;48077;48.104;11.702;2023-04-09T05:15:51;96097.28;;;0.52;100.00
62103;BME280;48077;48.104;11.702;2023-04-09T05:18:14;96115.03;;;0.58;100.00
62103;BME280;48077;48.104;11.702;2023-04-09T05:20:38;96112.69;;;0.47;100.00
62103;BME280;48077;48.104;11.702;2023-04-09T05:23:01;96104.91;;;0.37;100.00
62103;BME280;48077;48.104;11.702;2023-04-09T05:25:24;96117.13;;;0.46;100.00
62103;BME280;48077;48.104;11.702;2023-04-09T05:27:48;96115.16;;;0.48;100.00
62103;BME280;48077;48.104;11.702;2023-04-09T05:30:11;96119.34;;;0.59;100.00
62103;BME280;48077;48.104;11.702;2023-04-09T05:32:35;96119.84;;;0.63;100.00
62103;BME280;48077;48.104;11.702;2023-04-09T05:34:59;96117.38;;;0.61;100.00
62103;BME280;48077;48.104;11.702;2023-04-09T05:37:22;96099.63;;;0.55;100.00
62103;BME280;48077;48.104;11.702;2023-04-09T05:39:46;96107.84;;;0.60;100.00
62103;BME280;48077;48.104;11.702;2023-04-09T05:42:09;96092.22;;;0.50;100.00
62103;BME280;48077;48.104;11.702;2023-04-09T05:44:32;96107.41;;;0.73;100.00
62103;BME280;48077;48.104;11.702;2023-04-09T05:46:56;96082.25;;;0.62;100.00
62103;BME280;48077;48.104;11.702;2023-04-09T05:49:19;96080.81;;;0.68;100.00
62103;BME280;48077;48.104;11.702;2023-04-09T05:51:42;96083.81;;;0.81;100.00
62103;BME280;48077;48.104;11.702;2023-04-09T05:54:06;96081.22;;;0.89;100.00
62103;BME280;48077;48.104;11.702;2023-04-09T05:56:31;96065.44;;;0.81;100.00
62103;BME280;48077;48.104;11.702;2023-04-09T05:58:57;96104.59;;;1.00;100.00
62103;BME280;48077;48.104;11.702;2023-04-09T06:01:20;96122.69;;;1.12;100.00
62103;BME280;48077;48.104;11.702;2023-04-09T06:03:44;96108.56;;;1.05;100.00
62103;BME280;48077;48.104;11.702;2023-04-09T06:06:07;96126.53;;;1.26;100.00
62103;BME280;48077;48.104;11.702;2023-04-09T06:08:33;96127.72;;;1.31;100.00
62103;BME280;48077;48.104;11.702;2023-04-09T06:10:57;96128.84;;;1.37;100.00
62103;BME280;48077;48.104;11.702;2023-04-09T06:13:21;96111.75;;;1.33;100.00
62103;BME280;48077;48.104;11.702;2023-04-09T06:15:44;96119.81;;;1.39;100.00
62103;BME280;48077;48.104;11.702;2023-04-09T06:18:07;96123.66;;;1.53;100.00
62103;BME280;48077;48.104;11.702;2023-04-09T06:20:31;96111.69;;;1.59;100.00
62103;BME280;48077;48.104;11.702;2023-04-09T06:22:54;96130.78;;;1.77;100.00
62103;BME280;48077;48.104;11.702;2023-04-09T06:25:21;96125.19;;;1.80;100.00
62103;BME280;48077;48.104;11.702;2023-04-09T06:27:44;96111.88;;;1.82;100.00
62103;BME280;48077;48.104;11.702;2023-04-09T06:30:08;96139.69;;;2.01;100.00
62103;BME280;48077;48.104;11.702;2023-04-09T06:32:32;96121.91;;;1.95;100.00
62103;BME280;48077;48.104;11.702;2023-04-09T06:34:55;96111.53;;;1.93;100.00
62103;BME280;48077;48.104;11.702;2023-04-09T06:37:18;96132.09;;;2.14;100.00
62103;BME280;48077;48.104;11.702;2023-04-09T06:39:44;96148.91;;;2.30;100.00
62103;BME280;48077;48.104;11.702;2023-04-09T06:42:08;96137.72;;;2.36;100.00
62103;BME280;48077;48.104;11.702;2023-04-09T06:44:32;96142.78;;;2.46;100.00
62103;BME280;48077;48.104;11.702;2023-04-09T06:46:56;96131.44;;;2.53;100.00
62103;BME280;48077;48.104;11.702;2023-04-09T06:49:19;96092.97;;;2.36;100.00
62103;BME280;48077;48.104;11.702;2023-04-09T06:51:42;96135.88;;;2.69;100.00
62103;BME280;48077;48.104;11.702;2023-04-09T06:54:06;96125.31;;;2.69;100.00
62103;BME280;48077;48.104;11.702;2023-04-09T06:56:29;96136.66;;;2.78;100.00
62103;BME280;48077;48.104;11.702;2023-04-09T06:58:52;96119.19;;;2.77;100.00
62103;BME280;48077;48.104;11.702;2023-04-09T07:01:16;96125.59;;;2.91;100.00
62103;BME280;48077;48.104;11.702;2023-04-09T07:03:39;96143.66;;;3.02;100.00
62103;BME280;48077;48.104;11.702;2023-04-09T07:06:03;96129.69;;;2.93;100.00
62103;BME280;48077;48.104;11.702;2023-04-09T07:08:26;96132.97;;;3.03;100.00
62103;BME280;48077;48.104;11.702;2023-04-09T07:10:50;96144.91;;;3.22;100.00
62103;BME280;48077;48.104;11.702;2023-04-09T07:13:14;96155.28;;;3.32;100.00
62103;BME280;48077;48.104;11.702;2023-04-09T07:15:37;96132.31;;;3.41;100.00
62103;BME280;48077;48.104;11.702;2023-04-09T07:18:00;96150.88;;;3.56;100.00
62103;BME280;48077;48.104;11.702;2023-04-09T07:20:26;96142.81;;;3.49;100.00
62103;BME280;48077;48.104;11.702;2023-04-09T07:22:49;96128.81;;;3.49;100.00
62103;BME280;48077;48.104;11.702;2023-04-09T07:25:14;96157.47;;;3.83;100.00
62103;BME280;48077;48.104;11.702;2023-04-09T07:27:37;96148.38;;;3.94;100.00
62103;BME280;48077;48.104;11.702;2023-04-09T07:30:00;96143.41;;;3.91;100.00
62103;BME280;48077;48.104;11.702;2023-04-09T07:32:26;96137.97;;;3.92;100.00
62103;BME280;48077;48.104;11.702;2023-04-09T07:34:53;96135.94;;;4.02;100.00
62103;BME280;48077;48.104;11.702;2023-04-09T07:37:17;96127.16;;;4.02;100.00
62103;BME280;48077;48.104;11.702;2023-04-09T07:39:41;96137.03;;;4.08;100.00
62103;BME280;48077;48.104;11.702;2023-04-09T07:42:04;96130.34;;;3.97;98.59
62103;BME280;48077;48.104;11.702;2023-04-09T07:44:28;96148.22;;;4.10;98.41
62103;BME280;48077;48.104;11.702;2023-04-09T07:46:51;96094.41;;;3.73;99.39
62103;BME280;48077;48.104;11.702;2023-04-09T07:49:14;96127.41;;;3.92;100.00
62103;BME280;48077;48.104;11.702;2023-04-09T07:51:39;96145.84;;;4.00;100.00
62103;BME280;48077;48.104;11.702;2023-04-09T07:54:02;96147.41;;;4.10;100.00
62103;BME280;48077;48.104;11.702;2023-04-09T07:56:26;96136.38;;;4.06;100.00
62103;BME280;48077;48.104;11.702;2023-04-09T07:58:49;96156.13;;;4.33;100.00
62103;BME280;48077;48.104;11.702;2023-04-09T08:01:13;96154.56;;;4.47;100.00
62103;BME280;48077;48.104;11.702;2023-04-09T08:03:36;96144.56;;;4.57;92.99
62103;BME280;48077;48.104;11.702;2023-04-09T08:05:59;96160.44;;;4.72;92.69
62103;BME280;48077;48.104;11.702;2023-04-09T08:08:23;96135.84;;;4.72;92.07
62103;BME280;48077;48.104;11.702;2023-04-09T08:10:46;96158.19;;;4.99;91.07
62103;BME280;48077;48.104;11.702;2023-04-09T08:13:10;96104.94;;;4.72;90.74
62103;BME280;48077;48.104;11.702;2023-04-09T08:15:33;96155.28;;;5.09;89.90
62103;BME280;48077;48.104;11.702;2023-04-09T08:17:56;96139.06;;;5.12;89.74
62103;BME280;48077;48.104;11.702;2023-04-09T08:20:20;96114.28;;;5.13;89.86
62103;BME280;48077;48.104;11.702;2023-04-09T08:22:43;96130.56;;;5.31;90.75
62103;BME280;48077;48.104;11.702;2023-04-09T08:25:07;96127.28;;;5.44;90.00
62103;BME280;48077;48.104;11.702;2023-04-09T08:27:33;96152.88;;;5.73;89.11
62103;BME280;48077;48.104;11.702;2023-04-09T08:29:58;96158.97;;;5.74;88.59
62103;BME280;48077;48.104;11.702;2023-04-09T08:32:21;96143.59;;;5.47;87.43
62103;BME280;48077;48.104;11.702;2023-04-09T08:34:45;96137.47;;;5.47;86.49
62103;BME280;48077;48.104;11.702;2023-04-09T08:37:08;96135.75;;;5.54;87.14
62103;BME280;48077;48.104;11.702;2023-04-09T08:39:32;96123.06;;;5.50;85.99
62103;BME280;48077;48.104;11.702;2023-04-09T08:41:57;96144.69;;;5.53;85.17
62103;BME280;48077;48.104;11.702;2023-04-09T08:44:28;96153.59;;;5.67;85.09
62103;BME280;48077;48.104;11.702;2023-04-09T08:46:51;96118.84;;;5.55;85.70
62103;BME280;48077;48.104;11.702;2023-04-09T08:49:15;96153.75;;;5.95;85.21
62103;BME280;48077;48.104;11.702;2023-04-09T08:51:38;96167.44;;;6.20;84.71
62103;BME280;48077;48.104;11.702;2023-04-09T08:54:02;96163.03;;;6.27;84.66
62103;BME280;48077;48.104;11.702;2023-04-09T08:56:25;96173.13;;;6.39;82.82
62103;BME280;48077;48.104;11.702;2023-04-09T08:58:54;96164.31;;;6.32;82.61
62103;BME280;48077;48.104;11.702;2023-04-09T09:01:21;96174.50;;;6.35;81.98
62103;BME280;48077;48.104;11.702;2023-04-09T09:04:04;96121.47;;;6.06;79.18
62103;BME280;48077;48.104;11.702;2023-04-09T09:06:31;96141.97;;;6.19;79.56
62103;BME280;48077;48.104;11.702;2023-04-09T09:11:27;96135.09;;;6.46;76.57
62103;BME280;48077;48.104;11.702;2023-04-09T09:14:00;96173.44;;;7.00;72.33
62103;BME280;48077;48.104;11.702;2023-04-09T09:16:24;96136.25;;;6.65;73.80
62103;BME280;48077;48.104;11.702;2023-04-09T09:18:47;96170.31;;;6.90;76.32
62103;BME280;48077;48.104;11.702;2023-04-09T09:21:16;96162.09;;;7.13;72.26
62103;BME280;48077;48.104;11.702;2023-04-09T09:23:40;96162.25;;;7.05;75.49
62103;BME280;48077;48.104;11.702;2023-04-09T09:26:31;96181.91;;;7.17;76.21
62103;BME280;48077;48.104;11.702;2023-04-09T09:28:55;96174.63;;;7.26;74.44
62103;BME280;48077;48.104;11.702;2023-04-09T09:31:21;96181.75;;;7.25;73.80
62103;BME280;48077;48.104;11.702;2023-04-09T09:33:45;96156.16;;;7.11;73.57
62103;BME280;48077;48.104;11.702;2023-04-09T09:36:09;96161.50;;;7.18;74.66
62103;BME280;48077;48.104;11.702;2023-04-09T09:38:33;96154.47;;;7.38;73.14
62103;BME280;48077;48.104;11.702;2023-04-09T09:40:57;96151.19;;;7.36;72.19
62103;BME280;48077;48.104;11.702;2023-04-09T09:43:21;96154.66;;;7.37;73.55
62103;BME280;48077;48.104;11.702;2023-04-09T09:45:46;96141.03;;;7.46;73.53
62103;BME280;48077;48.104;11.702;2023-04-09T09:48:10;96165.41;;;7.63;73.69
62103;BME280;48077;48.104;11.702;2023-04-09T09:50:37;96164.88;;;7.81;70.71
62103;BME280;48077;48.104;11.702;2023-04-09T09:53:03;96162.88;;;7.97;67.28
62103;BME280;48077;48.104;11.702;2023-04-09T09:55:33;96152.19;;;7.77;69.77
62103;BME280;48077;48.104;11.702;2023-04-09T09:58:18;96147.66;;;7.70;72.02
62103;BME280;48077;48.104;11.702;2023-04-09T10:00:45;96177.59;;;7.93;71.59
62103;BME280;48077;48.104;11.702;2023-04-09T10:03:14;96153.88;;;7.91;70.97
62103;BME280;48077;48.104;11.702;2023-04-09T10:05:42;96160.41;;;7.95;71.12
62103;BME280;48077;48.104;11.702;2023-04-09T10:08:07;96170.06;;;8.09;70.29
62103;BME280;48077;48.104;11.702;2023-04-09T10:10:34;96156.78;;;8.03;71.98
62103;BME280;48077;48.104;11.702;2023-04-09T10:13:00;96163.16;;;8.22;68.95
62103;BME280;48077;48.104;11.702;2023-04-09T10:15:24;96152.34;;;8.23;68.49
62103;BME280;48077;48.104;11.702;2023-04-09T10:17:48;96161.59;;;8.47;64.20
62103;BME280;48077;48.104;11.702;2023-04-09T10:20:27;96170.94;;;8.37;64.31
62103;BME280;48077;48.104;11.702;2023-04-09T10:26:14;96162.97;;;8.30;67.42
62103;BME280;48077;48.104;11.702;2023-04-09T10:28:37;96157.03;;;8.21;68.10
62103;BME280;48077;48.104;11.702;2023-04-09T10:31:03;96148.28;;;8.41;67.11
62103;BME280;48077;48.104;11.702;2023-04-09T10:33:27;96159.91;;;8.33;68.25
62103;BME280;48077;48.104;11.702;2023-04-09T10:35:51;96156.22;;;8.27;70.13
62103;BME280;48077;48.104;11.702;2023-04-09T10:38:16;96159.69;;;8.28;68.38
62103;BME280;48077;48.104;11.702;2023-04-09T10:40:49;96148.84;;;8.23;68.53
62103;BME280;48077;48.104;11.702;2023-04-09T10:43:13;96154.56;;;8.26;67.38
62103;BME280;48077;48.104;11.702;2023-04-09T10:45:39;96155.38;;;8.20;67.83
62103;BME280;48077;48.104;11.702;2023-04-09T10:48:03;96142.72;;;8.22;66.62
62103;BME280;48077;48.104;11.702;2023-04-09T10:50:31;96144.53;;;8.15;67.65
62103;BME280;48077;48.104;11.702;2023-04-09T10:52:56;96166.44;;;8.30;67.47
62103;BME280;48077;48.104;11.702;2023-04-09T10:55:41;96160.31;;;8.23;67.63
62103;BME280;48077;48.104;11.702;2023-04-09T10:58:11;96164.38;;;8.26;68.53
62103;BME280;48077;48.104;11.702;2023-04-09T11:00:39;96149.25;;;8.26;69.10
62103;BME280;48077;48.104;11.702;2023-04-09T11:05:36;96151.91;;;8.26;68.96
62103;BME280;48077;48.104;11.702;2023-04-09T11:10:26;96149.94;;;8.42;66.03
62103;BME280;48077;48.104;11.702;2023-04-09T11:12:50;96146.66;;;8.46;64.99
62103;BME280;48077;48.104;11.702;2023-04-09T11:15:18;96164.25;;;8.41;65.42
62103;BME280;48077;48.104;11.702;2023-04-09T11:17:42;96155.25;;;8.42;66.07
62103;BME280;48077;48.104;11.702;2023-04-09T11:20:06;96147.66;;;8.39;63.78
62103;BME280;48077;48.104;11.702;2023-04-09T11:22:29;96141.91;;;8.28;67.00
62103;BME280;48077;48.104;11.702;2023-04-09T11:24:53;96154.00;;;8.38;64.03
62103;BME280;48077;48.104;11.702;2023-04-09T11:27:16;96135.78;;;8.21;62.92
62103;BME280;48077;48.104;11.702;2023-04-09T11:29:44;96154.75;;;8.25;63.28
62103;BME280;48077;48.104;11.702;2023-04-09T11:32:07;96143.06;;;7.99;63.22
62103;BME280;48077;48.104;11.702;2023-04-09T11:34:31;96150.84;;;8.01;62.81
62103;BME280;48077;48.104;11.702;2023-04-09T11:36:54;96140.47;;;8.13;63.38
62103;BME280;48077;48.104;11.702;2023-04-09T11:39:19;96146.03;;;8.38;60.77
62103;BME280;48077;48.104;11.702;2023-04-09T11:41:43;96148.25;;;8.27;61.47
62103;BME280;48077;48.104;11.702;2023-04-09T11:44:09;96146.41;;;8.28;62.58
62103;BME280;48077;48.104;11.702;2023-04-09T11:46:34;96140.47;;;8.19;61.48
62103;BME280;48077;48.104;11.702;2023-04-09T11:48:58;96159.50;;;8.36;61.19
62103;BME280;48077;48.104;11.702;2023-04-09T11:51:22;96155.63;;;8.32;61.53
62103;BME280;48077;48.104;11.702;2023-04-09T11:53:48;96148.44;;;8.39;60.82
62103;BME280;48077;48.104;11.702;2023-04-09T11:56:11;96165.91;;;8.48;61.73
62103;BME280;48077;48.104;11.702;2023-04-09T11:58:34;96154.03;;;8.64;59.74
62103;BME280;48077;48.104;11.702;2023-04-09T12:00:58;96162.63;;;8.66;60.32
62103;BME280;48077;48.104;11.702;2023-04-09T12:03:29;96168.34;;;8.70;59.35
62103;BME280;48077;48.104;11.702;2023-04-09T12:05:53;96170.59;;;8.66;59.29
62103;BME280;48077;48.104;11.702;2023-04-09T12:08:21;96174.28;;;8.59;58.99
62103;BME280;48077;48.104;11.702;2023-04-09T12:10:45;96161.94;;;8.31;61.03
62103;BME280;48077;48.104;11.702;2023-04-09T12:13:09;96163.34;;;8.27;62.13
62103;BME280;48077;48.104;11.702;2023-04-09T12:15:36;96168.91;;;8.25;61.97
62103;BME280;48077;48.104;11.702;2023-04-09T12:18:00;96137.56;;;8.07;63.30
62103;BME280;48077;48.104;11.702;2023-04-09T12:20:31;96160.94;;;8.32;63.03
62103;BME280;48077;48.104;11.702;2023-04-09T12:22:55;96146.84;;;8.38;60.37
62103;BME280;48077;48.104;11.702;2023-04-09T12:25:18;96156.25;;;8.54;61.03
62103;BME280;48077;48.104;11.702;2023-04-09T12:27:42;96152.38;;;8.43;59.92
62103;BME280;48077;48.104;11.702;2023-04-09T12:30:05;96169.56;;;8.41;60.77
62103;BME280;48077;48.104;11.702;2023-04-09T12:32:29;96169.94;;;8.38;62.78
62103;BME280;48077;48.104;11.702;2023-04-09T12:34:52;96175.09;;;8.46;59.97
62103;BME280;48077;48.104;11.702;2023-04-09T12:37:16;96132.69;;;8.18;61.27
62103;BME280;48077;48.104;11.702;2023-04-09T12:39:39;96165.91;;;8.48;62.90
62103;BME280;48077;48.104;11.702;2023-04-09T12:42:02;96159.97;;;8.60;62.59
62103;BME280;48077;48.104;11.702;2023-04-09T12:44:26;96170.22;;;8.96;60.20
62103;BME280;48077;48.104;11.702;2023-04-09T12:46:49;96150.91;;;9.27;60.85
62103;BME280;48077;48.104;11.702;2023-04-09T12:49:13;96142.69;;;9.42;59.83
62103;BME280;48077;48.104;11.702;2023-04-09T12:51:36;96135.19;;;9.78;58.53
62103;BME280;48077;48.104;11.702;2023-04-09T12:54:00;96090.91;;;9.83;56.53
62103;BME280;48077;48.104;11.702;2023-04-09T12:56:26;96136.59;;;9.80;57.37
62103;BME280;48077;48.104;11.702;2023-04-09T12:58:49;96144.06;;;9.58;59.91
62103;BME280;48077;48.104;11.702;2023-04-09T13:01:13;96154.78;;;9.25;58.90